Wattisham, United Kingdom

9:07 AM GMT on February 22, 2017 (GMT +0000)
Barking Tye | | Change Station

Elev 203 ft 52.13 °N, 1.02 °E | Updated 13 seconds ago

Mostly Cloudy
Mostly Cloudy
52.5 °F
Feels Like 52.5 °F
N
11.2
Wind Variable Wind from SSW
Gusts 17.4 mph

Today
High -- | Low -- °F
--% Chance of Precip.
Yesterday
High -- | Low -- °F
Precip. -- in
Pressure 29.71 in
Visibility 6.2 miles
Clouds Scattered Clouds 2000 ft
Mostly Cloudy 2500 ft
Dew Point 47 °F
Humidity 81%
Rainfall 0.00 in
Snow Depth Not available.
6:56 AM 5:23 PM
Waning Crescent, 19% visible
METAR EGUW 220850Z 26017KT 9999 SCT020 BKN025 11/08 Q1006 WHT NOSIG
Pressure 29.71 in
Visibility 6.2 miles
Clouds Scattered Clouds 2000 ft
Mostly Cloudy 2500 ft
Dew Point 47 °F
Humidity 81%
Rainfall 0.00 in
Snow Depth Not available.
6:56 AM 5:23 PM
Waning Crescent, 19% visible
METAR EGUW 220850Z 26017KT 9999 SCT020 BKN025 11/08 Q1006 WHT NOSIG

Get Your Daily Forecast Email!

Thanks for signing up!

Be on the lookout for a verification email in your inbox.

You'll start receiving the daily forecast at 8 AM.

×

10-Day Weather Forecast

×

Almanac

Astronomy

Feb. 22, 2017 Rise Set
Actual Time
Civil Twilight
Nautical Twilight
Astronomical Twilight
Moon
Length of Visible Light
Length of Day
Tomorrow will be .
, % of the Moon is Illuminated

Today's Extremes

Country Highs Country Lows

Community

WunderPhotos

Upload Photos

1,962,540 photos uploaded!

WunderBlog® & News

Nearby

Air Quality

  Air Quality AQ Index Pollutant
Not available.

Snow Depth

Station Depth Elevation

Earthquake Activity

City Distance Mag. Time & Date
Minimum magnitude displayed is 2.5.

Coastal Water Temperatures

Place Temperature

Stations

Nearby Weather Stations

Station Location Temp. Windchill Dew Point Humidity Wind Precip. Elev Updated Type